Aeroporto :
LOGIN :

Iscrizione | Disclaimer

   EN    FR    IT 

 










Sommario :    VFR   VFR Marginale   IFR   IFR Intensivo   IFR Molto Intensivo
Visibilità : 
Base nubi : 
>= 8 km
>= 3000ft
5 / 8 km
1000 / 3000 ft
1500m / 5 km
500 / 1000 ft
800 / 1500m
200 / 500 ft
< 800m
< 200 ft
Simboli :   Temporali  Nebbia  Neve Forte  Precipitazioni Forti  Vento > 20 kt
SIGMETs :   Varie  Temporali  Ghiacco  Turbolenza  Onda orograficha  Ceneri Vulcaniche






- Altitudine del aeroporto : 776 ft
- Codice IATA : RMS


ETAR - Ramstein Air Base

ULTIMO METAR :
  • 142056Z 22009KT 9999 BKN023 BKN029 07/06 A2965 RMK AO2A SLP049 T00710064 51027 $

METARs OBSOLETI :
  • 141956Z 23012KT 9999 FEW027 07/06 A2964 RMK AO2A SLP045 T00740060 $
  • 141856Z 24010G19KT 9999 CLR 08/06 A2960 RMK AO2A PK WND 26029/00 SLP031 T00800060 $
  • 141756Z 24019G27KT 9999 BKN045 08/06 A2956 RMK AO2A PK WND 22030/42 RAB00E23 SLP018 P0000 60000 T00820057 10087 20069 52017 $

TAF TAF ETAR
Valido dal 14 a 18 ore il 16 a 00 ore UTC


141805Z 1418/1524 25015G25KT 9999 SCT020 BKN030 510003 QNH2957INS
BECMG 1420/1421 22010G15KT 9999 BKN015 QNH2957INS
BECMG 1423/1424 22012G25KT 9000 -RA BKN015 OVC025 620709 510004 QNH2947INS
TEMPO 1502/1504 BKN020 650703
BECMG 1504/1505 23015G30KT 8000 -SHRA BKN020 610709 520004 QNH2947INS
TEMPO 1505/1509 24020G35KT 530004
BECMG 1512/1513 24009KT 9000 -SHRA BKN030 BKN070 510505 QNH2968INS
BECMG 1520/1521 22006KT 9000 -SHRA BKN015 610509 QNH2979INS TX10/1505Z TN06/1421Z



MetMap, La meteo Aeronautica in un colpo d'occhio ! - Copyright ORBIFLY Dicembre 2007 - Disclaimer

ORBIFLY MET'MAP TEAM :

Programmazione e sviluppo : Alexandra Zaïnal
Concezione : Baudouin d'Aumeries
Aiuto per la programmazione : Marc-Olivier Méhu
Supporto tecnico e logistico : Manuel Goepfert
Aiuto per la traduzione : Arnaldo La Scala

Contatto : metmap@orbifly.com




FONTI E CREDITI :

   NOAA